createdAt,value
2023-12-26T00:01:39.149Z,8.54
2023-12-26T00:04:05.825Z,8.51
2023-12-26T00:06:32.517Z,8.49
2023-12-26T00:08:59.188Z,8.48
2023-12-26T00:11:25.709Z,8.50
2023-12-26T00:13:52.291Z,8.48
2023-12-26T00:16:19.045Z,8.48
2023-12-26T00:18:45.792Z,8.46
2023-12-26T00:21:12.898Z,8.45
2023-12-26T00:23:39.649Z,8.48
2023-12-26T00:26:06.285Z,8.46
2023-12-26T00:28:32.828Z,8.47
2023-12-26T00:31:00.721Z,8.49
2023-12-26T00:33:27.554Z,8.44
2023-12-26T00:35:55.860Z,8.46
2023-12-26T00:38:22.744Z,8.44
2023-12-26T00:40:49.302Z,8.45
2023-12-26T00:43:15.961Z,8.43
2023-12-26T00:45:42.527Z,8.40
2023-12-26T00:48:09.192Z,8.41
2023-12-26T00:50:42.387Z,8.39
2023-12-26T00:53:09.996Z,8.39
2023-12-26T00:55:36.546Z,8.38
2023-12-26T00:58:03.362Z,8.37
2023-12-26T01:00:29.929Z,8.33
2023-12-26T01:02:56.782Z,8.35
2023-12-26T01:05:24.291Z,8.37
2023-12-26T01:07:51.055Z,8.38
2023-12-26T01:10:17.664Z,8.39
2023-12-26T01:12:44.339Z,8.34
2023-12-26T01:15:10.856Z,8.37
2023-12-26T01:17:37.635Z,8.34
2023-12-26T01:20:04.620Z,8.30
2023-12-26T01:22:31.214Z,8.33
2023-12-26T01:24:57.794Z,8.31
2023-12-26T01:27:24.395Z,8.32
2023-12-26T01:29:51.035Z,8.31
2023-12-26T01:32:17.618Z,8.26
2023-12-26T01:34:45.009Z,8.30
2023-12-26T01:37:11.573Z,8.34
2023-12-26T01:39:38.226Z,8.31
2023-12-26T01:42:04.915Z,8.26
2023-12-26T01:44:31.471Z,8.29
2023-12-26T01:46:58.054Z,8.32
2023-12-26T01:49:24.749Z,8.30
2023-12-26T01:51:53.087Z,8.30
2023-12-26T01:54:19.996Z,8.18
2023-12-26T01:56:47.096Z,8.03
2023-12-26T01:59:13.649Z,7.93
2023-12-26T02:01:40.219Z,7.87
2023-12-26T02:04:06.840Z,7.84
2023-12-26T02:06:33.469Z,7.77
2023-12-26T02:09:00.061Z,7.67
2023-12-26T02:11:26.571Z,7.60
2023-12-26T02:13:53.165Z,7.58
2023-12-26T02:16:20.475Z,7.51
2023-12-26T02:18:47.214Z,7.51
2023-12-26T02:21:13.968Z,7.48
2023-12-26T02:23:40.589Z,7.48
2023-12-26T02:26:07.174Z,7.48
2023-12-26T02:28:33.950Z,7.43
2023-12-26T02:31:01.481Z,7.45
2023-12-26T02:33:28.685Z,7.42
2023-12-26T02:35:55.338Z,7.41
2023-12-26T02:38:21.934Z,7.40
2023-12-26T02:40:53.324Z,7.41
2023-12-26T02:43:22.601Z,7.38
2023-12-26T02:45:50.492Z,7.41
2023-12-26T02:48:18.270Z,7.38
2023-12-26T02:50:47.896Z,7.41
2023-12-26T02:53:14.550Z,7.36
2023-12-26T02:55:41.292Z,7.34
2023-12-26T02:58:07.851Z,7.31
2023-12-26T03:00:34.402Z,7.34
2023-12-26T03:03:01.145Z,7.35
2023-12-26T03:05:27.869Z,7.38
2023-12-26T03:07:54.494Z,7.34
2023-12-26T03:10:21.142Z,7.31
2023-12-26T03:12:47.695Z,7.31
2023-12-26T03:15:14.535Z,7.36
2023-12-26T03:17:41.207Z,7.35
2023-12-26T03:20:08.109Z,7.34
2023-12-26T03:22:34.650Z,7.34
2023-12-26T03:25:01.178Z,7.34
2023-12-26T03:27:27.821Z,7.34
2023-12-26T03:29:54.423Z,7.35
2023-12-26T03:32:21.052Z,7.35
2023-12-26T03:34:47.622Z,7.38
2023-12-26T03:37:14.186Z,7.34
2023-12-26T03:39:42.435Z,7.41
2023-12-26T03:42:09.304Z,7.39
2023-12-26T03:44:36.494Z,7.43
2023-12-26T03:47:03.137Z,7.44
2023-12-26T03:49:29.958Z,7.42
2023-12-26T03:51:56.578Z,7.40
2023-12-26T03:54:23.524Z,7.41
2023-12-26T03:56:50.174Z,7.43
2023-12-26T03:59:16.697Z,7.41
2023-12-26T04:01:43.284Z,7.41
2023-12-26T04:04:09.984Z,7.41
2023-12-26T04:06:36.634Z,7.42
2023-12-26T04:09:03.366Z,7.42
2023-12-26T04:11:31.455Z,7.40
2023-12-26T04:13:58.032Z,7.39
2023-12-26T04:16:24.576Z,7.39
2023-12-26T04:18:51.339Z,7.41
2023-12-26T04:21:18.034Z,7.38
2023-12-26T04:23:44.607Z,7.40
2023-12-26T04:26:11.117Z,7.41
2023-12-26T04:28:37.683Z,7.39
2023-12-26T04:31:05.789Z,7.39
2023-12-26T04:33:32.590Z,7.38
2023-12-26T04:35:59.226Z,7.42
2023-12-26T04:38:25.934Z,7.41
2023-12-26T04:40:52.520Z,7.39
2023-12-26T04:43:19.411Z,7.35
2023-12-26T04:45:46.005Z,7.37
2023-12-26T04:48:12.859Z,7.38
2023-12-26T04:50:39.672Z,7.36
2023-12-26T04:53:06.362Z,7.38
2023-12-26T04:55:33.450Z,7.38
2023-12-26T04:58:01.699Z,7.42
2023-12-26T05:00:28.299Z,7.40
2023-12-26T05:02:55.166Z,7.39
2023-12-26T05:05:21.948Z,7.37
2023-12-26T05:07:48.610Z,7.41
2023-12-26T05:10:15.207Z,7.41
2023-12-26T05:12:41.901Z,7.37
2023-12-26T05:15:08.837Z,7.40
2023-12-26T05:17:35.477Z,7.41
2023-12-26T05:20:11.005Z,7.40
2023-12-26T05:22:48.485Z,7.41
2023-12-26T05:25:15.130Z,7.41
2023-12-26T05:27:41.669Z,7.37
2023-12-26T05:30:08.786Z,7.38
2023-12-26T05:32:37.602Z,7.40
2023-12-26T05:35:04.858Z,7.37
2023-12-26T05:37:31.466Z,7.38
2023-12-26T05:39:58.088Z,7.39
2023-12-26T05:42:25.044Z,7.41
2023-12-26T05:44:51.791Z,7.39
2023-12-26T05:47:18.736Z,7.41
2023-12-26T05:49:45.609Z,7.42
2023-12-26T05:52:12.754Z,7.44
2023-12-26T05:54:39.483Z,7.43
2023-12-26T05:57:07.979Z,7.45
2023-12-26T05:59:34.913Z,7.44
2023-12-26T06:02:01.515Z,7.44
2023-12-26T06:04:28.112Z,7.44
2023-12-26T06:06:54.766Z,7.41
2023-12-26T06:09:21.415Z,7.43
2023-12-26T06:11:48.090Z,7.38
2023-12-26T06:14:15.073Z,7.40
2023-12-26T06:16:41.697Z,7.36
2023-12-26T06:19:08.643Z,7.33
2023-12-26T06:21:35.465Z,7.32
2023-12-26T06:24:02.108Z,7.27
2023-12-26T06:26:28.706Z,7.25
2023-12-26T06:28:55.475Z,7.25
2023-12-26T06:31:22.149Z,7.26
2023-12-26T06:33:48.905Z,7.23
2023-12-26T06:36:15.729Z,7.22
2023-12-26T06:38:42.534Z,7.21
2023-12-26T06:41:10.056Z,7.16
2023-12-26T06:43:36.648Z,7.13
2023-12-26T06:46:04.466Z,7.08
2023-12-26T06:48:31.286Z,7.03
2023-12-26T06:50:57.982Z,6.95
2023-12-26T06:53:24.721Z,6.95
2023-12-26T06:55:51.333Z,6.95
2023-12-26T06:58:17.932Z,6.93
2023-12-26T07:00:44.718Z,6.92
2023-12-26T07:03:12.724Z,6.94
2023-12-26T07:05:39.670Z,6.97
2023-12-26T07:08:06.738Z,6.97
2023-12-26T07:10:33.271Z,7.04
2023-12-26T07:12:59.986Z,7.04
2023-12-26T07:15:26.998Z,7.00
2023-12-26T07:17:55.550Z,7.03
2023-12-26T07:20:22.741Z,6.96
2023-12-26T07:22:49.387Z,7.01
2023-12-26T07:25:15.969Z,6.99
2023-12-26T07:27:42.667Z,6.90
2023-12-26T07:30:09.616Z,6.91
2023-12-26T07:32:36.216Z,6.90
2023-12-26T07:35:03.291Z,6.91
2023-12-26T07:37:29.964Z,6.93
2023-12-26T07:39:56.724Z,6.94
2023-12-26T07:42:23.615Z,6.96
2023-12-26T07:44:50.564Z,6.97
2023-12-26T07:47:17.220Z,6.94
2023-12-26T07:49:44.145Z,6.94
2023-12-26T07:52:10.738Z,6.94
2023-12-26T07:54:37.347Z,6.90
2023-12-26T07:57:04.134Z,6.83
2023-12-26T07:59:30.656Z,6.77
2023-12-26T08:01:57.695Z,6.75
2023-12-26T08:04:24.242Z,6.73
2023-12-26T08:06:52.919Z,6.69
2023-12-26T08:09:19.926Z,6.65
2023-12-26T08:11:46.599Z,6.63
2023-12-26T08:14:18.796Z,6.64
2023-12-26T08:16:46.695Z,6.69
2023-12-26T08:19:13.499Z,6.68
2023-12-26T08:21:40.153Z,6.67
2023-12-26T08:24:08.536Z,6.66
2023-12-26T08:26:35.369Z,6.65
2023-12-26T08:29:02.032Z,6.64
2023-12-26T08:31:28.626Z,6.69
2023-12-26T08:33:55.232Z,6.66
2023-12-26T08:36:21.887Z,6.67
2023-12-26T08:38:48.541Z,6.68
2023-12-26T08:41:15.491Z,6.75
2023-12-26T08:43:42.077Z,6.77
2023-12-26T08:46:08.681Z,6.72
2023-12-26T08:48:35.476Z,6.70
2023-12-26T08:51:02.272Z,6.62
2023-12-26T08:53:28.929Z,6.62
2023-12-26T08:55:55.540Z,6.56
2023-12-26T08:58:23.320Z,6.56
2023-12-26T09:00:50.016Z,6.48
2023-12-26T09:03:17.106Z,6.48
2023-12-26T09:05:44.131Z,6.42
2023-12-26T09:08:10.772Z,6.42
2023-12-26T09:10:37.439Z,6.37
2023-12-26T09:13:04.091Z,6.31
2023-12-26T09:15:30.671Z,6.32
2023-12-26T09:17:57.599Z,6.36
2023-12-26T09:20:24.414Z,6.34
2023-12-26T09:22:51.306Z,6.37
2023-12-26T09:25:17.928Z,6.36
2023-12-26T09:27:44.532Z,6.36
2023-12-26T09:30:11.609Z,6.34
2023-12-26T09:32:38.388Z,6.38
2023-12-26T09:35:05.316Z,6.42
2023-12-26T09:37:36.263Z,6.45
2023-12-26T09:40:04.100Z,6.46
2023-12-26T09:42:31.173Z,6.55
2023-12-26T09:44:58.094Z,6.58
2023-12-26T09:47:24.667Z,6.68
2023-12-26T09:49:51.820Z,6.80
2023-12-26T09:52:18.598Z,6.85
2023-12-26T09:54:48.683Z,7.07
2023-12-26T09:57:18.156Z,7.24
2023-12-26T09:59:44.813Z,7.12
2023-12-26T10:02:14.669Z,7.14
2023-12-26T10:04:41.388Z,6.99
2023-12-26T10:07:07.987Z,6.92
2023-12-26T10:09:34.815Z,6.86
2023-12-26T10:12:01.500Z,6.88
2023-12-26T10:14:31.146Z,6.91
2023-12-26T10:16:58.055Z,7.04
2023-12-26T10:19:25.134Z,7.06
2023-12-26T10:21:55.014Z,7.05
2023-12-26T10:24:22.004Z,7.19
2023-12-26T10:26:48.801Z,7.35
2023-12-26T10:29:15.787Z,7.53
2023-12-26T10:31:42.729Z,7.64
2023-12-26T10:34:21.192Z,7.83
2023-12-26T10:36:49.420Z,7.65
2023-12-26T10:39:16.439Z,7.54
2023-12-26T10:41:49.023Z,7.28
2023-12-26T10:44:16.656Z,7.20
2023-12-26T10:46:43.551Z,7.21
2023-12-26T10:49:14.774Z,7.20
2023-12-26T10:51:44.916Z,7.25
2023-12-26T10:54:14.553Z,7.24
2023-12-26T10:56:41.190Z,7.23
2023-12-26T10:59:08.018Z,7.22
2023-12-26T11:01:34.587Z,7.33
2023-12-26T11:04:01.383Z,7.31
2023-12-26T11:06:28.269Z,7.19
2023-12-26T11:08:54.908Z,7.23
2023-12-26T11:11:21.643Z,7.31
2023-12-26T11:13:48.406Z,7.25
2023-12-26T11:16:15.370Z,7.12
2023-12-26T11:18:42.116Z,6.97
2023-12-26T11:21:08.815Z,6.82
2023-12-26T11:23:35.416Z,6.75
2023-12-26T11:26:02.049Z,6.63
2023-12-26T11:28:28.653Z,6.69
2023-12-26T11:30:55.341Z,6.99
2023-12-26T11:33:22.159Z,7.08
2023-12-26T11:35:48.898Z,7.36
2023-12-26T11:38:15.477Z,7.60
2023-12-26T11:40:42.095Z,7.45
2023-12-26T11:43:08.627Z,7.64
2023-12-26T11:45:35.176Z,7.63
2023-12-26T11:48:02.033Z,7.80
2023-12-26T11:50:28.650Z,7.63
2023-12-26T11:52:55.238Z,7.45
2023-12-26T11:55:21.841Z,7.35
2023-12-26T11:57:48.494Z,7.48
2023-12-26T12:00:15.097Z,7.76
2023-12-26T12:02:41.755Z,7.77
2023-12-26T12:05:08.417Z,7.57
2023-12-26T12:07:35.030Z,7.37
2023-12-26T12:10:11.079Z,6.99
2023-12-26T12:12:37.706Z,6.93
2023-12-26T12:15:04.311Z,6.77
2023-12-26T12:17:31.089Z,6.82
2023-12-26T12:19:57.815Z,7.17
2023-12-26T12:22:27.556Z,7.63
2023-12-26T12:24:55.207Z,7.71
2023-12-26T12:27:23.084Z,7.74
2023-12-26T12:30:02.588Z,7.69
2023-12-26T12:32:33.175Z,7.73
2023-12-26T12:35:16.022Z,7.80
2023-12-26T12:37:43.669Z,7.98
2023-12-26T12:40:11.102Z,7.38
2023-12-26T12:42:40.631Z,7.12
2023-12-26T12:45:07.275Z,6.94
2023-12-26T12:47:34.016Z,6.77
2023-12-26T12:50:00.773Z,6.47
2023-12-26T12:52:27.494Z,6.54
2023-12-26T12:54:54.147Z,6.55
2023-12-26T12:57:20.860Z,6.55
2023-12-26T12:59:47.710Z,6.58
2023-12-26T13:02:14.348Z,6.56
2023-12-26T13:04:42.640Z,6.52
2023-12-26T13:07:12.630Z,6.36
2023-12-26T13:09:39.297Z,6.34
2023-12-26T13:12:06.174Z,6.27
2023-12-26T13:14:32.820Z,6.34
2023-12-26T13:17:02.574Z,6.41
2023-12-26T13:19:31.668Z,6.45
2023-12-26T13:22:00.943Z,6.64
2023-12-26T13:24:27.582Z,6.62
2023-12-26T13:26:54.214Z,6.74
2023-12-26T13:29:24.469Z,6.74
2023-12-26T13:31:51.680Z,6.78
2023-12-26T13:34:18.746Z,6.94
2023-12-26T13:36:45.620Z,6.67
2023-12-26T13:39:12.666Z,6.66
2023-12-26T13:41:39.440Z,6.40
2023-12-26T13:44:14.106Z,6.26
2023-12-26T13:46:40.635Z,6.01
2023-12-26T13:49:07.406Z,5.85
2023-12-26T13:51:34.080Z,5.76
2023-12-26T13:54:00.770Z,5.65
2023-12-26T13:56:27.603Z,5.51
2023-12-26T13:58:54.768Z,5.60
2023-12-26T14:01:24.181Z,5.69
2023-12-26T14:03:51.962Z,5.89
2023-12-26T14:06:19.733Z,5.89
2023-12-26T14:08:48.319Z,5.98
2023-12-26T14:11:14.930Z,6.04
2023-12-26T14:13:41.575Z,6.07
2023-12-26T14:16:08.112Z,6.13
2023-12-26T14:18:35.008Z,6.21
2023-12-26T14:21:02.373Z,6.11
2023-12-26T14:23:33.102Z,6.15
2023-12-26T14:25:59.703Z,6.12
2023-12-26T14:28:26.419Z,6.01
2023-12-26T14:30:53.334Z,5.95
2023-12-26T14:33:23.254Z,5.88
2023-12-26T14:35:50.932Z,5.93
2023-12-26T14:38:17.951Z,6.00
2023-12-26T14:40:49.706Z,6.03
2023-12-26T14:43:16.831Z,6.00
2023-12-26T14:45:43.794Z,6.01
2023-12-26T14:48:10.676Z,5.96
2023-12-26T14:50:37.792Z,5.95
2023-12-26T14:53:05.885Z,5.89
2023-12-26T14:55:32.522Z,5.80
2023-12-26T14:57:59.390Z,5.70
2023-12-26T15:00:26.155Z,5.61
2023-12-26T15:02:53.204Z,5.47
2023-12-26T15:05:20.082Z,5.36
2023-12-26T15:07:48.832Z,5.28
2023-12-26T15:10:16.638Z,5.18
2023-12-26T15:12:43.438Z,5.21
2023-12-26T15:15:10.270Z,5.27
2023-12-26T15:17:37.075Z,5.29
2023-12-26T15:20:04.370Z,5.27
2023-12-26T15:22:32.956Z,5.28
2023-12-26T15:24:59.618Z,5.32
2023-12-26T15:27:26.677Z,5.36
2023-12-26T15:29:53.315Z,5.35
2023-12-26T15:32:20.141Z,5.38
2023-12-26T15:34:46.792Z,5.38
2023-12-26T15:37:13.557Z,5.34
2023-12-26T15:39:40.773Z,5.34
2023-12-26T15:42:08.725Z,5.45
2023-12-26T15:44:37.193Z,5.46
2023-12-26T15:47:04.298Z,5.40
2023-12-26T15:49:31.121Z,5.46
2023-12-26T15:51:57.876Z,5.47
2023-12-26T15:54:25.109Z,5.48
2023-12-26T15:56:52.170Z,5.47
2023-12-26T15:59:18.994Z,5.44
2023-12-26T16:01:46.842Z,5.42
2023-12-26T16:04:13.482Z,5.43
2023-12-26T16:06:40.222Z,5.44
2023-12-26T16:09:07.028Z,5.40
2023-12-26T16:11:36.015Z,5.35
2023-12-26T16:14:09.930Z,5.35
2023-12-26T16:16:40.304Z,5.32
2023-12-26T16:19:10.123Z,5.38
2023-12-26T16:21:38.914Z,5.36
2023-12-26T16:24:05.710Z,5.43
2023-12-26T16:26:32.305Z,5.43
2023-12-26T16:28:59.997Z,5.35
2023-12-26T16:31:26.642Z,5.28
2023-12-26T16:33:55.446Z,5.28
2023-12-26T16:36:22.554Z,5.31
2023-12-26T16:38:49.194Z,5.34
2023-12-26T16:41:15.805Z,5.39
2023-12-26T16:43:42.545Z,5.36
2023-12-26T16:46:09.821Z,5.38
2023-12-26T16:48:40.818Z,5.48
2023-12-26T16:51:09.140Z,5.44
2023-12-26T16:53:36.228Z,5.46
2023-12-26T16:56:03.505Z,5.42
2023-12-26T16:58:30.133Z,5.35
2023-12-26T17:00:57.028Z,5.41
2023-12-26T17:03:23.739Z,5.45
2023-12-26T17:05:50.433Z,5.42
2023-12-26T17:08:17.179Z,5.40
2023-12-26T17:10:43.742Z,5.43
2023-12-26T17:13:10.274Z,5.38
2023-12-26T17:15:37.649Z,5.40
2023-12-26T17:18:04.537Z,5.43
2023-12-26T17:20:31.524Z,5.41
2023-12-26T17:22:58.476Z,5.37
2023-12-26T17:25:25.170Z,5.41
2023-12-26T17:27:51.746Z,5.45
2023-12-26T17:30:18.520Z,5.46
2023-12-26T17:32:45.298Z,5.46
2023-12-26T17:35:12.013Z,5.44
2023-12-26T17:37:38.523Z,5.41
2023-12-26T17:40:05.554Z,5.36
2023-12-26T17:42:32.267Z,5.42
2023-12-26T17:44:59.641Z,5.45
2023-12-26T17:47:26.273Z,5.45
2023-12-26T17:49:54.844Z,5.41
2023-12-26T17:52:22.143Z,5.39
2023-12-26T17:54:48.786Z,5.42
2023-12-26T17:57:15.980Z,5.40
2023-12-26T17:59:42.562Z,5.40
2023-12-26T18:02:11.417Z,5.42
2023-12-26T18:04:38.039Z,5.41
2023-12-26T18:07:04.954Z,5.44
2023-12-26T18:09:32.522Z,5.43
2023-12-26T18:11:59.101Z,5.45
2023-12-26T18:14:25.723Z,5.42
2023-12-26T18:16:52.371Z,5.42
2023-12-26T18:19:19.161Z,5.42
2023-12-26T18:21:46.031Z,5.41
2023-12-26T18:24:12.893Z,5.43
2023-12-26T18:26:39.627Z,5.38
2023-12-26T18:29:06.224Z,5.37
2023-12-26T18:31:32.989Z,5.39
2023-12-26T18:33:59.666Z,5.40
2023-12-26T18:36:26.351Z,5.38
2023-12-26T18:38:53.295Z,5.32
2023-12-26T18:41:20.094Z,5.30
2023-12-26T18:43:46.716Z,5.33
2023-12-26T18:46:13.375Z,5.34
2023-12-26T18:48:42.089Z,5.32
2023-12-26T18:51:09.329Z,5.30
2023-12-26T18:53:36.133Z,5.22
2023-12-26T18:56:02.786Z,5.21
2023-12-26T18:58:29.479Z,5.18
2023-12-26T19:00:56.820Z,5.16
2023-12-26T19:03:23.525Z,5.13
2023-12-26T19:05:50.183Z,5.05
2023-12-26T19:08:16.751Z,5.06
2023-12-26T19:10:43.290Z,4.99
2023-12-26T19:13:09.979Z,4.96
2023-12-26T19:15:39.599Z,4.90
2023-12-26T19:18:08.454Z,4.88
2023-12-26T19:20:35.142Z,4.89
2023-12-26T19:23:01.720Z,4.81
2023-12-26T19:25:28.397Z,4.77
2023-12-26T19:27:55.597Z,4.70
2023-12-26T19:30:22.552Z,4.65
2023-12-26T19:32:49.261Z,4.57
2023-12-26T19:35:15.951Z,4.54
2023-12-26T19:37:42.633Z,4.59
2023-12-26T19:40:09.518Z,4.65
2023-12-26T19:42:36.206Z,4.74
2023-12-26T19:45:02.903Z,4.75
2023-12-26T19:47:29.562Z,4.77
2023-12-26T19:49:56.387Z,4.85
2023-12-26T19:52:23.028Z,4.83
2023-12-26T19:54:49.602Z,4.86
2023-12-26T19:57:16.874Z,4.84
2023-12-26T19:59:43.540Z,4.82
2023-12-26T20:02:10.178Z,4.79
2023-12-26T20:04:39.941Z,4.83
2023-12-26T20:07:07.473Z,4.80
2023-12-26T20:09:34.167Z,4.82
2023-12-26T20:12:00.888Z,4.83
2023-12-26T20:14:27.528Z,4.82
2023-12-26T20:16:54.160Z,4.82
2023-12-26T20:19:21.070Z,4.80
2023-12-26T20:21:47.992Z,4.79
2023-12-26T20:24:14.992Z,4.82
2023-12-26T20:26:48.288Z,4.83
2023-12-26T20:29:15.397Z,4.83
2023-12-26T20:31:45.602Z,4.82
2023-12-26T20:34:12.348Z,4.82
2023-12-26T20:36:42.920Z,4.86
2023-12-26T20:39:09.725Z,4.88
2023-12-26T20:41:36.493Z,4.87
2023-12-26T20:44:03.645Z,4.84
2023-12-26T20:46:30.330Z,4.84
2023-12-26T20:48:57.495Z,4.86
2023-12-26T20:51:24.172Z,4.89
2023-12-26T20:53:51.424Z,4.87
2023-12-26T20:56:18.309Z,4.88
2023-12-26T20:58:45.515Z,4.84
2023-12-26T21:01:12.205Z,4.88
2023-12-26T21:03:38.906Z,4.86
2023-12-26T21:06:05.678Z,4.85
2023-12-26T21:08:32.309Z,4.86
2023-12-26T21:11:01.300Z,4.86
2023-12-26T21:13:27.947Z,4.87
2023-12-26T21:15:54.673Z,4.92
2023-12-26T21:18:21.430Z,4.93
2023-12-26T21:20:48.136Z,4.92
2023-12-26T21:23:14.744Z,4.93
2023-12-26T21:25:42.003Z,4.95
2023-12-26T21:28:08.614Z,4.92
2023-12-26T21:30:35.351Z,4.89
2023-12-26T21:33:02.108Z,4.92
2023-12-26T21:35:28.761Z,4.88
2023-12-26T21:37:55.590Z,4.87
2023-12-26T21:40:22.400Z,4.84
2023-12-26T21:42:49.021Z,4.82
2023-12-26T21:45:15.610Z,4.81
2023-12-26T21:47:42.571Z,4.79
2023-12-26T21:50:09.932Z,4.78
2023-12-26T21:52:36.708Z,4.78
2023-12-26T21:55:04.618Z,4.72
2023-12-26T21:57:31.286Z,4.71
2023-12-26T21:59:57.921Z,4.68
2023-12-26T22:02:24.519Z,4.64
2023-12-26T22:04:51.169Z,4.61
2023-12-26T22:07:17.810Z,4.61
2023-12-26T22:09:44.470Z,4.54
2023-12-26T22:12:11.380Z,4.42
2023-12-26T22:14:38.240Z,4.29
2023-12-26T22:17:05.046Z,4.15
2023-12-26T22:19:31.705Z,4.02
2023-12-26T22:21:58.615Z,3.89
2023-12-26T22:24:25.273Z,3.80
2023-12-26T22:26:52.255Z,3.75
2023-12-26T22:29:18.907Z,3.70
2023-12-26T22:31:45.589Z,3.72
2023-12-26T22:34:12.960Z,3.61
2023-12-26T22:36:40.024Z,3.48
2023-12-26T22:39:06.687Z,3.39
2023-12-26T22:41:33.412Z,3.28
2023-12-26T22:44:00.050Z,3.23
2023-12-26T22:46:28.227Z,3.16
2023-12-26T22:48:55.084Z,3.07
2023-12-26T22:51:22.187Z,2.99
2023-12-26T22:53:49.003Z,2.93
2023-12-26T22:56:15.733Z,2.88
2023-12-26T22:58:42.744Z,2.83
2023-12-26T23:01:09.549Z,2.87
2023-12-26T23:03:38.500Z,2.85
2023-12-26T23:06:05.489Z,2.94
2023-12-26T23:08:32.161Z,3.01
2023-12-26T23:10:58.758Z,3.06
2023-12-26T23:13:25.425Z,3.10
2023-12-26T23:15:52.073Z,3.11
2023-12-26T23:18:18.908Z,3.11
2023-12-26T23:20:45.820Z,3.12
2023-12-26T23:23:12.827Z,3.10
2023-12-26T23:25:39.417Z,3.04
2023-12-26T23:28:06.192Z,3.03
2023-12-26T23:30:32.846Z,2.99
2023-12-26T23:33:00.298Z,2.98
2023-12-26T23:35:26.962Z,2.92
2023-12-26T23:37:53.799Z,2.88
2023-12-26T23:40:20.453Z,2.83
2023-12-26T23:42:47.147Z,2.80
2023-12-26T23:45:13.747Z,2.78
2023-12-26T23:47:40.608Z,2.74
2023-12-26T23:50:07.626Z,2.72
2023-12-26T23:52:34.276Z,2.66
2023-12-26T23:55:00.817Z,2.67
2023-12-26T23:57:27.469Z,2.65
2023-12-26T23:59:57.089Z,2.65
